PDA320 UKBB-EYVI
Flight info
| Callsign | PDA320 |
|---|---|
| Flight time | 0h 35m |
| Altitude | 34000 |
| Route | TUVOG M856 LOVIK M996 DUKAT |
| Aircraft | B737/M-SDE2E3FGHIRWXY/LB1 |
Departure
| Time | 2026-05-06 19:25 |
|---|---|
| Airport | Boryspil International Airport (UKBB) |
Arrival
| Time | 2026-05-06 20:00 |
|---|---|
| Airport | Vilnius International Airport (EYVI) |
| Time | Latitude | Longitude | Altitude | Speed | Heading |
|---|---|---|---|---|---|
| 2026-05-06 19:16 | 50.35102 | 30.90019 | 405 ft | 0 kts | 0° |
| 2026-05-06 19:18 | 50.35107 | 30.90018 | 406 ft | 1 kts | 357° |
| 2026-05-06 19:18 | 50.35135 | 30.90016 | 405 ft | 7 kts | 359° |
| 2026-05-06 19:18 | 50.35199 | 30.90019 | 412 ft | 12 kts | 3° |
| 2026-05-06 19:18 | 50.35291 | 30.90025 | 410 ft | 13 kts | 2° |
| 2026-05-06 19:19 | 50.35380 | 30.90032 | 411 ft | 12 kts | 2° |
| 2026-05-06 19:19 | 50.35442 | 30.90067 | 412 ft | 10 kts | 46° |
| 2026-05-06 19:19 | 50.35457 | 30.90168 | 413 ft | 9 kts | 91° |
| 2026-05-06 19:19 | 50.35476 | 30.90261 | 411 ft | 9 kts | 45° |
| 2026-05-06 19:20 | 50.35535 | 30.90284 | 414 ft | 9 kts | 3° |
| 2026-05-06 19:20 | 50.35597 | 30.90290 | 412 ft | 9 kts | 3° |
| 2026-05-06 19:20 | 50.35664 | 30.90296 | 411 ft | 11 kts | 3° |
| 2026-05-06 19:20 | 50.35751 | 30.90303 | 406 ft | 15 kts | 2° |
| 2026-05-06 19:21 | 50.35877 | 30.90312 | 409 ft | 20 kts | 3° |
| 2026-05-06 19:21 | 50.35996 | 30.90322 | 410 ft | 12 kts | 4° |
| 2026-05-06 19:21 | 50.36050 | 30.90353 | 414 ft | 0 kts | 36° |
| 2026-05-06 19:22 | 50.36067 | 30.90377 | 410 ft | 7 kts | 49° |
| 2026-05-06 19:22 | 50.36085 | 30.90477 | 416 ft | 12 kts | 88° |
| 2026-05-06 19:23 | 50.36040 | 30.90593 | 414 ft | 15 kts | 148° |
| 2026-05-06 19:23 | 50.35932 | 30.90637 | 415 ft | 12 kts | 178° |
| 2026-05-06 19:23 | 50.35926 | 30.90637 | 412 ft | 0 kts | 181° |
| 2026-05-06 19:24 | 50.35923 | 30.90637 | 413 ft | 5 kts | 182° |
| 2026-05-06 19:24 | 50.35796 | 30.90627 | 415 ft | 32 kts | 182° |
| 2026-05-06 19:24 | 50.35288 | 30.90585 | 415 ft | 118 kts | 183° |
| 2026-05-06 19:25 | 50.34204 | 30.90501 | 530 ft | 186 kts | 183° |
| 2026-05-06 19:25 | 50.32946 | 30.90413 | 1777 ft | 181 kts | 187° |
| 2026-05-06 19:25 | 50.31618 | 30.90302 | 2643 ft | 198 kts | 189° |
| 2026-05-06 19:25 | 50.30199 | 30.90137 | 3430 ft | 209 kts | 187° |
| 2026-05-06 19:26 | 50.28691 | 30.90006 | 4090 ft | 229 kts | 186° |
| 2026-05-06 19:26 | 50.27614 | 30.89923 | 4574 ft | 238 kts | 185° |
| 2026-05-06 19:26 | 50.25933 | 30.89807 | 5388 ft | 246 kts | 185° |
| 2026-05-06 19:26 | 50.24197 | 30.89697 | 6268 ft | 252 kts | 184° |
| 2026-05-06 19:27 | 50.22435 | 30.89589 | 7172 ft | 255 kts | 184° |
| 2026-05-06 19:27 | 50.20648 | 30.89481 | 8033 ft | 259 kts | 184° |
| 2026-05-06 19:27 | 50.18794 | 30.89368 | 8684 ft | 278 kts | 183° |
| 2026-05-06 19:27 | 50.16779 | 30.89816 | 8942 ft | 313 kts | 157° |
| 2026-05-06 19:28 | 50.15005 | 30.91964 | 9480 ft | 334 kts | 125° |
| 2026-05-06 19:28 | 50.14133 | 30.95306 | 10437 ft | 336 kts | 96° |
| 2026-05-06 19:28 | 50.14383 | 30.98889 | 11465 ft | 336 kts | 69° |
| 2026-05-06 19:28 | 50.15154 | 31.02343 | 12348 ft | 342 kts | 78° |
| 2026-05-06 19:29 | 50.15279 | 31.06068 | 13215 ft | 346 kts | 87° |
| 2026-05-06 19:29 | 50.15888 | 31.09678 | 14050 ft | 350 kts | 61° |
| 2026-05-06 19:29 | 50.17506 | 31.12517 | 14821 ft | 355 kts | 34° |
| 2026-05-06 19:29 | 50.19790 | 31.13948 | 15556 ft | 360 kts | 8° |
| 2026-05-06 19:30 | 50.22275 | 31.13664 | 16266 ft | 364 kts | 342° |
| 2026-05-06 19:30 | 50.24607 | 31.12015 | 17024 ft | 367 kts | 334° |
| 2026-05-06 19:30 | 50.26964 | 31.10426 | 17705 ft | 372 kts | 339° |
| 2026-05-06 19:30 | 50.29434 | 31.09169 | 18351 ft | 376 kts | 344° |
| 2026-05-06 19:31 | 50.31997 | 31.08222 | 18945 ft | 379 kts | 348° |
| 2026-05-06 19:31 | 50.34599 | 31.07513 | 19548 ft | 381 kts | 351° |
| 2026-05-06 19:31 | 50.53854 | 31.04266 | 23297 ft | 402 kts | 353° |
| 2026-05-06 19:32 | 50.65124 | 31.02510 | 24872 ft | 412 kts | 353° |
| 2026-05-06 19:32 | 50.76599 | 31.00681 | 26304 ft | 420 kts | 353° |
| 2026-05-06 19:32 | 50.88321 | 30.98807 | 27553 ft | 428 kts | 353° |
| 2026-05-06 19:32 | 50.95132 | 30.97738 | 28190 ft | 433 kts | 355° |
| 2026-05-06 19:33 | 50.98126 | 30.97596 | 28424 ft | 436 kts | 360° |
| 2026-05-06 19:33 | 51.03724 | 30.97847 | 28926 ft | 439 kts | 1° |
| 2026-05-06 19:33 | 51.15982 | 30.98520 | 30164 ft | 439 kts | 1° |
| 2026-05-06 19:33 | 51.28123 | 30.98928 | 31425 ft | 434 kts | 0° |
| 2026-05-06 19:34 | 51.39941 | 30.99300 | 32437 ft | 433 kts | 0° |
| 2026-05-06 19:34 | 51.42943 | 30.99400 | 32754 ft | 431 kts | 0° |
| 2026-05-06 19:34 | 51.45939 | 30.99502 | 33018 ft | 430 kts | 0° |
| 2026-05-06 19:34 | 51.48943 | 30.99604 | 33240 ft | 430 kts | 0° |
| 2026-05-06 19:35 | 51.51935 | 30.99705 | 33498 ft | 430 kts | 0° |
| 2026-05-06 19:35 | 51.54923 | 30.99806 | 33765 ft | 429 kts | 0° |
| 2026-05-06 19:35 | 51.57875 | 30.99905 | 33906 ft | 431 kts | 0° |
| 2026-05-06 19:35 | 51.68003 | 31.00246 | 33933 ft | 440 kts | 0° |
| 2026-05-06 19:36 | 51.86914 | 31.00875 | 33869 ft | 428 kts | 360° |
| 2026-05-06 19:36 | 51.96254 | 31.01143 | 33898 ft | 426 kts | 360° |
| 2026-05-06 19:37 | 52.06989 | 31.00379 | 33896 ft | 432 kts | 336° |
| 2026-05-06 19:37 | 52.09583 | 30.98009 | 33893 ft | 425 kts | 320° |
| 2026-05-06 19:37 | 52.11610 | 30.94586 | 33906 ft | 418 kts | 306° |
| 2026-05-06 19:38 | 52.21837 | 30.71610 | 33881 ft | 424 kts | 305° |
| 2026-05-06 19:38 | 52.35846 | 30.40324 | 33880 ft | 427 kts | 304° |
| 2026-05-06 19:39 | 52.46300 | 30.16714 | 33837 ft | 417 kts | 304° |
| 2026-05-06 19:39 | 52.59662 | 29.86195 | 33886 ft | 412 kts | 303° |
| 2026-05-06 19:40 | 52.73147 | 29.55018 | 33889 ft | 425 kts | 303° |
| 2026-05-06 19:40 | 52.83518 | 29.30835 | 33806 ft | 414 kts | 303° |
| 2026-05-06 19:41 | 52.96588 | 29.00115 | 33854 ft | 410 kts | 303° |
| 2026-05-06 19:41 | 53.09607 | 28.69126 | 33870 ft | 425 kts | 302° |
| 2026-05-06 19:42 | 53.14905 | 28.56397 | 33814 ft | 415 kts | 302° |
| 2026-05-06 19:42 | 53.27761 | 28.25196 | 33854 ft | 412 kts | 301° |
| 2026-05-06 19:43 | 53.40926 | 27.92842 | 33842 ft | 428 kts | 301° |
| 2026-05-06 19:43 | 53.48904 | 27.73043 | 33794 ft | 416 kts | 301° |
| 2026-05-06 19:44 | 53.50490 | 27.69093 | 33793 ft | 402 kts | 300° |
| 2026-05-06 19:44 | 53.52037 | 27.65277 | 33786 ft | 388 kts | 301° |
| 2026-05-06 19:44 | 53.53544 | 27.61603 | 33786 ft | 375 kts | 301° |
| 2026-05-06 19:44 | 53.55001 | 27.58063 | 33788 ft | 362 kts | 301° |
| 2026-05-06 19:45 | 53.56410 | 27.54633 | 33768 ft | 350 kts | 300° |
| 2026-05-06 19:45 | 53.57783 | 27.51281 | 33276 ft | 351 kts | 300° |
| 2026-05-06 19:45 | 53.59196 | 27.47802 | 32079 ft | 370 kts | 300° |
| 2026-05-06 19:45 | 53.61378 | 27.42412 | 30342 ft | 393 kts | 301° |
| 2026-05-06 19:46 | 53.67427 | 27.27531 | 27667 ft | 370 kts | 300° |
| 2026-05-06 19:46 | 53.69459 | 27.22516 | 27211 ft | 351 kts | 300° |
| 2026-05-06 19:46 | 53.70819 | 27.19145 | 26799 ft | 343 kts | 300° |
| 2026-05-06 19:46 | 53.72146 | 27.15846 | 26404 ft | 336 kts | 300° |
| 2026-05-06 19:47 | 53.73455 | 27.12583 | 26026 ft | 336 kts | 300° |
| 2026-05-06 19:47 | 53.74781 | 27.09265 | 25661 ft | 349 kts | 300° |
| 2026-05-06 19:47 | 53.77392 | 27.02718 | 24922 ft | 371 kts | 300° |
| 2026-05-06 19:47 | 53.83144 | 26.88335 | 23157 ft | 364 kts | 300° |
| 2026-05-06 19:48 | 53.88721 | 26.74284 | 21327 ft | 354 kts | 300° |
| 2026-05-06 19:48 | 53.90214 | 26.70831 | 20960 ft | 352 kts | 306° |
| 2026-05-06 19:48 | 53.94285 | 26.63087 | 19918 ft | 347 kts | 308° |
| 2026-05-06 19:48 | 54.00699 | 26.51030 | 18351 ft | 339 kts | 308° |
| 2026-05-06 19:49 | 54.06873 | 26.39241 | 16662 ft | 332 kts | 307° |
| 2026-05-06 19:49 | 54.12943 | 26.27570 | 15094 ft | 323 kts | 307° |
| 2026-05-06 19:49 | 54.18793 | 26.16269 | 13635 ft | 317 kts | 306° |
| 2026-05-06 19:49 | 54.24631 | 26.04939 | 12026 ft | 312 kts | 306° |
| 2026-05-06 19:50 | 54.30304 | 25.93881 | 10515 ft | 306 kts | 306° |
| 2026-05-06 19:50 | 54.33159 | 25.88304 | 9970 ft | 297 kts | 306° |
| 2026-05-06 19:50 | 54.37941 | 25.79158 | 9334 ft | 272 kts | 305° |
| 2026-05-06 19:50 | 54.42738 | 25.69925 | 8120 ft | 268 kts | 305° |
| 2026-05-06 19:51 | 54.46329 | 25.62964 | 7267 ft | 263 kts | 301° |
| 2026-05-06 19:51 | 54.47081 | 25.60201 | 6963 ft | 251 kts | 277° |
| 2026-05-06 19:51 | 54.47241 | 25.57311 | 6710 ft | 245 kts | 268° |
| 2026-05-06 19:51 | 54.47306 | 25.53764 | 6396 ft | 240 kts | 268° |
| 2026-05-06 19:52 | 54.47358 | 25.51052 | 6299 ft | 220 kts | 268° |
| 2026-05-06 19:52 | 54.47412 | 25.48539 | 6160 ft | 202 kts | 268° |
| 2026-05-06 19:52 | 54.47461 | 25.46218 | 6030 ft | 186 kts | 268° |
| 2026-05-06 19:52 | 54.47511 | 25.43887 | 5624 ft | 184 kts | 268° |
| 2026-05-06 19:53 | 54.47556 | 25.41713 | 5253 ft | 180 kts | 268° |
| 2026-05-06 19:53 | 54.47601 | 25.39627 | 5060 ft | 167 kts | 268° |
| 2026-05-06 19:53 | 54.47661 | 25.36906 | 4875 ft | 153 kts | 268° |
| 2026-05-06 19:53 | 54.47400 | 25.35193 | 4767 ft | 150 kts | 234° |
| 2026-05-06 19:54 | 54.46612 | 25.33998 | 4728 ft | 159 kts | 216° |
| 2026-05-06 19:54 | 54.45230 | 25.32475 | 4488 ft | 167 kts | 217° |
| 2026-05-06 19:54 | 54.43881 | 25.30965 | 4292 ft | 157 kts | 222° |
| 2026-05-06 19:54 | 54.43293 | 25.29522 | 4220 ft | 145 kts | 252° |
| 2026-05-06 19:55 | 54.43271 | 25.27830 | 4157 ft | 146 kts | 285° |
| 2026-05-06 19:55 | 54.43735 | 25.25808 | 4115 ft | 157 kts | 285° |
| 2026-05-06 19:55 | 54.44554 | 25.22064 | 3944 ft | 157 kts | 286° |
| 2026-05-06 19:55 | 54.44945 | 25.20279 | 3798 ft | 161 kts | 286° |
| 2026-05-06 19:56 | 54.45637 | 25.18679 | 3604 ft | 172 kts | 319° |
| 2026-05-06 19:56 | 54.46734 | 25.17881 | 3439 ft | 179 kts | 345° |
| 2026-05-06 19:56 | 54.47989 | 25.18011 | 3237 ft | 184 kts | 14° |
| 2026-05-06 19:56 | 54.49165 | 25.18781 | 3078 ft | 177 kts | 15° |
| 2026-05-06 19:57 | 54.50305 | 25.19489 | 2879 ft | 172 kts | 17° |
| 2026-05-06 19:57 | 54.51415 | 25.20236 | 2706 ft | 172 kts | 19° |
| 2026-05-06 19:57 | 54.52530 | 25.21007 | 2543 ft | 174 kts | 19° |
| 2026-05-06 19:57 | 54.53682 | 25.21807 | 2447 ft | 183 kts | 20° |
| 2026-05-06 19:58 | 54.54875 | 25.22637 | 2236 ft | 186 kts | 21° |
| 2026-05-06 19:58 | 54.56064 | 25.23464 | 2001 ft | 182 kts | 23° |
| 2026-05-06 19:58 | 54.57215 | 25.24265 | 1748 ft | 174 kts | 24° |
| 2026-05-06 19:58 | 54.58299 | 25.25019 | 1518 ft | 163 kts | 25° |
| 2026-05-06 19:59 | 54.59322 | 25.25731 | 1303 ft | 156 kts | 24° |
| 2026-05-06 19:59 | 54.60311 | 25.26419 | 1092 ft | 153 kts | 22° |
| 2026-05-06 19:59 | 54.61292 | 25.27099 | 868 ft | 151 kts | 21° |
| 2026-05-06 19:59 | 54.62264 | 25.27776 | 679 ft | 152 kts | 21° |
| 2026-05-06 20:00 | 54.63194 | 25.28421 | 613 ft | 127 kts | 21° |
| 2026-05-06 20:00 | 54.63882 | 25.28897 | 608 ft | 85 kts | 21° |
| 2026-05-06 20:00 | 54.64297 | 25.29187 | 617 ft | 43 kts | 22° |
| 2026-05-06 20:00 | 54.64451 | 25.29257 | 625 ft | 17 kts | 333° |
| 2026-05-06 20:01 | 54.64507 | 25.29098 | 623 ft | 4 kts | 297° |
| 2026-05-06 20:01 | 54.64507 | 25.29097 | 622 ft | 0 kts | 297° |
| 2026-05-06 20:02 | 54.64508 | 25.29096 | 622 ft | 0 kts | 297° |
| 2026-05-06 20:02 | 54.64512 | 25.29081 | 621 ft | 4 kts | 296° |
| 2026-05-06 20:02 | 54.64542 | 25.28971 | 619 ft | 13 kts | 297° |
| 2026-05-06 20:03 | 54.64557 | 25.28854 | 614 ft | 10 kts | 264° |
| 2026-05-06 20:03 | 54.64541 | 25.28708 | 624 ft | 14 kts | 259° |
| 2026-05-06 20:03 | 54.64516 | 25.28612 | 624 ft | 4 kts | 213° |
| 2026-05-06 20:03 | 54.64490 | 25.28615 | 617 ft | 4 kts | 169° |
| 2026-05-06 20:04 | 54.64457 | 25.28625 | 618 ft | 6 kts | 169° |
| 2026-05-06 20:04 | 54.64445 | 25.28629 | 619 ft | 1 kts | 169° |
| 2026-05-06 20:04 | 54.64436 | 25.28632 | 622 ft | 3 kts | 169° |
| 2026-05-06 20:04 | 54.64397 | 25.28644 | 617 ft | 9 kts | 171° |
| 2026-05-06 20:05 | 54.64312 | 25.28661 | 615 ft | 12 kts | 175° |
| 2026-05-06 20:05 | 54.64230 | 25.28659 | 620 ft | 11 kts | 209° |
| 2026-05-06 20:05 | 54.64214 | 25.28560 | 624 ft | 8 kts | 268° |
| 2026-05-06 20:05 | 54.64212 | 25.28461 | 618 ft | 8 kts | 268° |
| 2026-05-06 20:06 | 54.64202 | 25.28366 | 614 ft | 8 kts | 245° |
| 2026-05-06 20:06 | 54.64186 | 25.28283 | 614 ft | 6 kts | 278° |
| 2026-05-06 20:06 | 54.64188 | 25.28277 | 614 ft | 1 kts | 301° |
| 2026-05-06 20:06 | 54.64207 | 25.28277 | 620 ft | 8 kts | 2° |
| 2026-05-06 20:07 | 54.64242 | 25.28279 | 617 ft | 1 kts | 359° |
| 2026-05-06 20:07 | 54.64246 | 25.28278 | 619 ft | 0 kts | 358° |